Time;durP1;ratioP1;P1;durP2;ratioP2;P2;SDS_P1;SDS_P2;PMS_P1;PMS_P2;Temp;Humidity;BMP_temperature;BMP_pressure;BME280_temperature;BME280_humidity;BME280_pressure;Samples;Min_cycle;Max_cycle;Signal;HPM_P1;HPM_P2
2023/05/11 00:00:34;;;;;;;7.20;3.10;;;;;;;13.18;100.00;100462.19;5116260;28;20458;-71
2023/05/11 00:03:05;;;;;;;4.60;2.90;;;;;;;13.07;100.00;100469.72;5117335;28;20026;-71
2023/05/11 00:05:35;;;;;;;5.25;2.60;;;;;;;13.15;100.00;100469.34;5107114;28;20045;-71
2023/05/11 00:08:05;;;;;;;5.30;2.58;;;;;;;13.17;100.00;100472.75;5116874;28;20495;-71
2023/05/11 00:10:35;;;;;;;4.60;2.83;;;;;;;13.04;100.00;100472.50;5116829;28;20033;-71
2023/05/11 00:13:06;;;;;;;4.80;2.83;;;;;;;12.96;100.00;100473.78;5118978;28;20031;-71
2023/05/11 00:15:36;;;;;;;4.63;3.03;;;;;;;13.00;100.00;100470.09;5117367;28;20038;-71
2023/05/11 00:18:07;;;;;;;6.07;2.70;;;;;;;12.91;100.00;100467.88;5115001;28;21181;-71
2023/05/11 00:20:37;;;;;;;5.90;2.78;;;;;;;12.88;100.00;100468.84;5117200;28;20549;-70
2023/05/11 00:23:07;;;;;;;4.53;2.83;;;;;;;12.84;100.00;100470.84;5115646;28;20057;-72
2023/05/11 00:25:38;;;;;;;4.82;2.58;;;;;;;12.99;100.00;100468.38;5117624;28;20031;-72
2023/05/11 00:28:09;;;;;;;3.90;2.25;;;;;;;13.02;100.00;100468.22;5115845;28;20027;-72
2023/05/11 00:30:40;;;;;;;4.10;2.45;;;;;;;13.10;100.00;100466.13;5114205;28;20046;-72
2023/05/11 00:33:10;;;;;;;3.40;2.30;;;;;;;13.08;100.00;100466.16;5119246;28;20039;-72
2023/05/11 00:35:41;;;;;;;4.25;2.60;;;;;;;13.05;100.00;100458.44;5117659;28;20545;-71
2023/05/11 00:38:11;;;;;;;5.65;3.22;;;;;;;13.07;100.00;100463.63;5123817;28;20029;-72
2023/05/11 00:40:42;;;;;;;5.78;3.15;;;;;;;13.15;100.00;100461.47;5131169;28;20039;-70
2023/05/11 00:43:12;;;;;;;4.10;2.75;;;;;;;13.22;100.00;100465.53;5119139;28;20047;-72
2023/05/11 00:45:46;;;;;;;4.93;3.08;;;;;;;13.28;100.00;100463.47;5116146;28;20098;-70
2023/05/11 00:48:17;;;;;;;7.35;3.20;;;;;;;13.19;100.00;100458.66;5115473;28;20330;-72
2023/05/11 00:50:47;;;;;;;5.78;3.50;;;;;;;13.17;100.00;100464.88;5116362;28;20498;-71
2023/05/11 00:53:18;;;;;;;6.05;3.85;;;;;;;13.22;100.00;100462.91;5116109;28;20055;-73
2023/05/11 00:55:48;;;;;;;5.25;3.50;;;;;;;13.23;100.00;100460.19;5117256;28;20389;-71
2023/05/11 00:58:19;;;;;;;6.05;3.50;;;;;;;13.28;100.00;100466.09;5129695;28;20483;-72
2023/05/11 01:00:50;;;;;;;13.38;6.97;;;;;;;13.30;100.00;100460.75;5116075;28;20035;-71
2023/05/11 01:03:20;;;;;;;11.60;5.63;;;;;;;13.33;100.00;100471.97;5117086;28;20517;-70
2023/05/11 01:06:05;;;;;;;7.50;4.60;;;;;;;13.21;100.00;100461.22;5130113;28;20122;-71
2023/05/11 01:09:00;;;;;;;6.38;3.97;;;;;;;13.21;100.00;100461.22;5115452;28;20644;-70
2023/05/11 01:11:50;;;;;;;7.38;4.10;;;;;;;13.24;100.00;100467.13;5116274;28;20447;-74
2023/05/11 01:14:40;;;;;;;5.70;3.78;;;;;;;13.22;100.00;100470.78;5117625;28;20032;-73
2023/05/11 01:17:22;;;;;;;5.18;3.45;;;;;;;13.21;100.00;100464.66;5114018;28;20529;-69
2023/05/11 01:20:01;;;;;;;5.43;3.60;;;;;;;13.16;100.00;100464.06;5115656;28;20085;-72
2023/05/11 01:23:05;;;;;;;6.07;3.83;;;;;;;13.14;100.00;100457.16;5116356;28;20374;-72
2023/05/11 01:26:03;;;;;;;6.45;3.70;;;;;;;13.26;100.00;100461.84;5115293;28;20086;-71
2023/05/11 01:28:45;;;;;;;6.47;3.47;;;;;;;13.15;100.00;100461.47;5114195;28;20066;-72
2023/05/11 01:31:18;;;;;;;8.95;3.72;;;;;;;13.12;100.00;100456.38;5113239;28;20023;-72
2023/05/11 01:34:00;;;;;;;5.57;3.30;;;;;;;13.09;100.00;100464.41;5114815;28;20047;-70
2023/05/11 01:36:37;;;;;;;6.88;3.45;;;;;;;13.18;100.00;100461.34;5113774;28;20672;-71
2023/05/11 01:39:10;;;;;;;5.10;2.80;;;;;;;12.95;100.00;100472.06;5113086;28;20035;-71
2023/05/11 01:41:48;;;;;;;6.88;2.83;;;;;;;12.80;100.00;100470.13;5111378;28;20062;-71
2023/05/11 01:44:21;;;;;;;6.32;2.78;;;;;;;12.81;100.00;100469.22;5111248;28;20465;-69
2023/05/11 01:46:52;;;;;;;4.45;2.63;;;;;;;12.80;100.00;100475.38;5114793;28;20031;-71
2023/05/11 01:49:22;;;;;;;4.35;2.60;;;;;;;12.77;100.00;100475.53;5114785;28;20038;-71
2023/05/11 01:51:54;;;;;;;6.53;2.65;;;;;;;12.83;100.00;100474.41;5115559;28;20727;-71
2023/05/11 01:54:26;;;;;;;4.05;2.20;;;;;;;12.80;100.00;100480.63;5116055;28;20405;-71
2023/05/11 01:56:59;;;;;;;5.80;2.53;;;;;;;12.75;100.00;100477.38;5114091;28;20070;-72
2023/05/11 01:59:31;;;;;;;4.70;2.72;;;;;;;12.83;100.00;100475.22;5115361;28;20126;-73
2023/05/11 02:02:03;;;;;;;4.75;2.70;;;;;;;12.78;100.00;100476.38;5115607;28;20119;-73
2023/05/11 02:04:36;;;;;;;9.63;2.88;;;;;;;12.80;100.00;100479.78;5114129;28;20159;-70
2023/05/11 02:07:09;;;;;;;3.88;2.42;;;;;;;12.78;100.00;100479.84;5114666;28;21027;-71
2023/05/11 02:09:40;;;;;;;6.80;3.20;;;;;;;12.81;100.00;100471.81;5110687;28;20098;-71
2023/05/11 02:12:13;;;;;;;5.03;2.65;;;;;;;12.96;100.00;100476.41;5115151;28;20031;-72
2023/05/11 02:14:45;;;;;;;5.00;3.13;;;;;;;12.88;100.00;100475.03;5119395;28;20118;-71
2023/05/11 02:17:21;;;;;;;5.88;3.28;;;;;;;12.81;100.00;100477.06;5114197;28;20524;-70
2023/05/11 02:19:53;;;;;;;6.28;3.35;;;;;;;12.88;100.00;100476.72;5113863;28;20476;-71
2023/05/11 02:22:24;;;;;;;5.13;2.85;;;;;;;12.83;100.00;100475.22;5113954;28;20517;-71
2023/05/11 02:24:55;;;;;;;5.35;3.00;;;;;;;12.85;100.00;100477.78;5116586;28;20616;-71
2023/05/11 02:27:25;;;;;;;6.65;3.72;;;;;;;12.78;100.00;100471.97;5113620;28;20027;-70
2023/05/11 02:29:56;;;;;;;5.63;3.53;;;;;;;12.82;100.00;100484.03;5116169;28;20311;-72
2023/05/11 02:32:29;;;;;;;5.65;3.03;;;;;;;12.86;100.00;100482.97;5116925;28;20489;-73
2023/05/11 02:35:05;;;;;;;6.32;3.63;;;;;;;13.02;100.00;100483.97;5118400;28;20042;-71
2023/05/11 02:37:40;;;;;;;;;;;;;;;13.07;100.00;100484.63;5118691;28;20031;-70
2023/05/11 02:40:18;;;;;;;4.78;2.88;;;;;;;13.04;100.00;100485.63;5121633;28;20004;-73
2023/05/11 02:42:53;;;;;;;6.13;3.00;;;;;;;12.94;100.00;100486.13;5137335;28;20104;-70
2023/05/11 02:45:27;;;;;;;8.88;3.80;;;;;;;12.93;100.00;100487.03;5117541;28;20138;-70
2023/05/11 02:48:01;;;;;;;6.18;3.45;;;;;;;12.89;100.00;100488.09;5119156;28;20533;-70
2023/05/11 02:50:35;;;;;;;5.55;3.40;;;;;;;12.94;100.00;100483.50;5117940;28;20043;-73
2023/05/11 02:53:10;;;;;;;6.63;3.53;;;;;;;12.84;100.00;100491.81;5120965;28;20031;-71
2023/05/11 02:55:41;;;;;;;5.03;3.50;;;;;;;12.91;100.00;100491.47;5114567;28;20404;-70
2023/05/11 02:58:11;;;;;;;5.68;3.78;;;;;;;12.84;100.00;100484.78;5116173;28;20027;-73
2023/05/11 03:00:42;;;;;;;6.18;3.45;;;;;;;12.93;100.00;100480.94;5116364;28;20444;-71
2023/05/11 03:03:13;;;;;;;7.80;3.92;;;;;;;13.06;100.00;100488.19;5117273;28;20408;-71
2023/05/11 03:05:43;;;;;;;8.05;3.53;;;;;;;12.99;100.00;100490.22;5136369;28;20023;-71
2023/05/11 03:08:13;;;;;;;6.28;3.65;;;;;;;13.06;100.00;100486.38;5121900;28;20023;-72
2023/05/11 03:10:45;;;;;;;6.55;3.97;;;;;;;12.97;100.00;100488.59;5133948;28;20043;-72
2023/05/11 03:13:17;;;;;;;5.00;3.17;;;;;;;12.93;100.00;100487.03;5119350;28;20504;-72
2023/05/11 03:15:48;;;;;;;5.70;3.38;;;;;;;12.95;100.00;100485.19;5118092;28;20130;-71
2023/05/11 03:18:19;;;;;;;5.32;3.25;;;;;;;12.89;100.00;100485.47;5117876;28;20041;-71
2023/05/11 03:20:50;;;;;;;7.72;3.67;;;;;;;12.88;100.00;100491.63;5116987;28;20062;-73
2023/05/11 03:23:21;;;;;;;5.53;3.47;;;;;;;12.94;100.00;100483.50;5121447;28;20023;-72
2023/05/11 03:25:52;;;;;;;5.63;3.10;;;;;;;13.05;100.00;100492.56;5115574;28;20035;-71
2023/05/11 03:28:23;;;;;;;6.32;3.53;;;;;;;13.07;100.00;100489.88;5118437;28;20027;-70
2023/05/11 03:30:53;;;;;;;6.10;3.15;;;;;;;13.10;100.00;100489.72;5118589;28;20493;-73
2023/05/11 03:33:24;;;;;;;6.63;3.90;;;;;;;12.99;100.00;100492.00;5118811;28;20086;-72
2023/05/11 03:35:55;;;;;;;5.68;3.50;;;;;;;12.93;100.00;100498.38;5128795;28;20031;-71
2023/05/11 03:38:27;;;;;;;7.80;3.97;;;;;;;12.87;100.00;100487.31;5119647;28;20493;-72
2023/05/11 03:40:59;;;;;;;6.13;3.50;;;;;;;12.98;100.00;100490.28;5116048;28;20038;-71
2023/05/11 03:43:33;;;;;;;6.57;3.95;;;;;;;13.04;100.00;100487.41;5114937;28;20034;-72
2023/05/11 03:46:04;;;;;;;6.97;3.83;;;;;;;13.19;100.00;100486.66;5115001;28;20031;-73
2023/05/11 03:48:35;;;;;;;6.78;4.13;;;;;;;13.12;100.00;100498.38;5116569;28;20093;-72
2023/05/11 03:51:05;;;;;;;8.85;4.47;;;;;;;13.06;100.00;100483.75;5114918;28;20121;-69
2023/05/11 03:53:37;;;;;;;6.38;4.20;;;;;;;13.11;100.00;100486.19;5116884;28;20500;-70
2023/05/11 03:56:07;;;;;;;8.02;4.05;;;;;;;13.04;100.00;100482.16;5118460;28;20038;-72
2023/05/11 03:58:39;;;;;;;6.78;3.95;;;;;;;13.09;100.00;100486.25;5116326;28;20023;-73
2023/05/11 04:01:12;;;;;;;6.70;4.30;;;;;;;13.22;100.00;100481.28;5116539;28;20105;-72
2023/05/11 04:03:48;;;;;;;6.95;3.75;;;;;;;13.35;100.00;100485.00;5115581;28;20556;-71
2023/05/11 04:06:19;;;;;;;6.88;3.75;;;;;;;13.27;100.00;100479.28;5119616;28;20038;-72
2023/05/11 04:08:49;;;;;;;7.22;3.67;;;;;;;13.44;100.00;100479.31;5114392;28;20027;-71
2023/05/11 04:11:21;;;;;;;7.00;4.15;;;;;;;13.37;100.00;100480.56;5131377;28;20062;-71
2023/05/11 04:13:51;;;;;;;8.68;4.63;;;;;;;13.50;100.00;100473.75;5133700;28;20457;-73
2023/05/11 04:16:21;;;;;;;7.55;4.30;;;;;;;13.52;100.00;100478.03;5134123;28;20143;-73
2023/05/11 04:18:51;;;;;;;8.10;4.80;;;;;;;13.45;100.00;100481.88;5131292;28;20508;-72
2023/05/11 04:21:22;;;;;;;8.85;4.90;;;;;;;13.57;100.00;100485.69;5115299;28;20041;-73
2023/05/11 04:23:52;;;;;;;7.47;4.60;;;;;;;13.46;100.00;100482.72;5118051;28;20030;-73
2023/05/11 04:26:23;;;;;;;8.63;5.13;;;;;;;13.43;100.00;100486.31;5119482;28;20591;-71
2023/05/11 04:28:53;;;;;;;10.88;5.10;;;;;;;13.34;100.00;100485.91;5111479;28;20549;-71
2023/05/11 04:31:23;;;;;;;9.70;4.25;;;;;;;13.57;100.00;100480.44;5112397;28;20516;-73
2023/05/11 04:33:54;;;;;;;8.02;4.90;;;;;;;13.55;100.00;100480.50;5116769;28;20250;-73
2023/05/11 04:36:24;;;;;;;7.38;4.47;;;;;;;13.65;100.00;100479.13;5115396;28;20489;-71
2023/05/11 04:38:54;;;;;;;11.35;5.60;;;;;;;13.73;100.00;100481.38;5129983;28;20039;-73
2023/05/11 04:41:25;;;;;;;8.93;4.90;;;;;;;13.64;100.00;100487.06;5113169;28;20038;-72
2023/05/11 04:43:55;;;;;;;12.27;6.20;;;;;;;13.64;100.00;100487.06;5117105;28;20038;-71
2023/05/11 04:46:25;;;;;;;11.13;5.90;;;;;;;13.63;100.00;100486.22;5119139;28;20027;-73
2023/05/11 04:48:55;;;;;;;10.13;5.47;;;;;;;13.75;100.00;100490.84;5115510;28;20303;-71
2023/05/11 04:51:26;;;;;;;9.15;5.20;;;;;;;13.89;100.00;100482.31;5119007;28;20031;-72
2023/05/11 04:53:56;;;;;;;7.63;4.82;;;;;;;13.87;100.00;100494.63;5116241;28;20031;-71
2023/05/11 04:56:26;;;;;;;9.02;4.90;;;;;;;13.92;100.00;100488.22;5132592;28;20020;-72
2023/05/11 04:58:57;;;;;;;9.45;4.50;;;;;;;14.00;100.00;100491.34;5113339;28;20134;-71
2023/05/11 05:01:28;;;;;;;9.40;4.80;;;;;;;13.86;100.00;100487.69;5117477;28;20070;-72
2023/05/11 05:03:58;;;;;;;7.60;4.65;;;;;;;13.84;100.00;100485.16;5116139;28;20122;-71
2023/05/11 05:06:29;;;;;;;9.45;5.50;;;;;;;13.82;100.00;100489.63;5117406;28;20414;-72
2023/05/11 05:08:59;;;;;;;9.60;5.22;;;;;;;13.78;100.00;100495.13;5115372;28;20027;-71
2023/05/11 05:11:29;;;;;;;9.75;5.78;;;;;;;13.72;100.00;100495.44;5116937;28;20027;-72
2023/05/11 05:14:00;;;;;;;10.57;5.55;;;;;;;13.74;100.00;100494.41;5113247;28;20394;-72
2023/05/11 05:16:30;;;;;;;12.32;5.40;;;;;;;13.93;100.00;100492.56;5115231;28;20110;-72
2023/05/11 05:19:00;;;;;;;7.78;4.80;;;;;;;13.81;100.00;100492.31;5110840;28;20100;-71
2023/05/11 05:21:31;;;;;;;10.07;5.72;;;;;;;13.87;100.00;100494.63;5113227;28;20037;-72
2023/05/11 05:24:05;;;;;;;17.50;8.02;;;;;;;14.02;100.00;100493.88;5115024;28;20081;-72
2023/05/11 05:26:36;;;;;;;15.25;8.75;;;;;;;14.12;100.00;100492.50;5135916;28;20397;-68
2023/05/11 05:29:06;;;;;;;22.45;10.35;;;;;;;14.19;100.00;100494.75;5110473;28;20031;-70
2023/05/11 05:31:36;;;;;;;18.80;9.40;;;;;;;14.19;100.00;100501.78;5115542;28;20027;-70
2023/05/11 05:34:07;;;;;;;20.27;10.30;;;;;;;14.30;100.00;100500.31;5129830;28;20031;-72
2023/05/11 05:36:38;;;;;;;20.08;10.07;;;;;;;14.34;100.00;100501.84;5115444;28;20578;-72
2023/05/11 05:39:10;;;;;;;22.33;10.82;;;;;;;14.33;100.00;100500.16;5126537;28;20058;-71
2023/05/11 05:41:41;;;;;;;22.10;11.52;;;;;;;14.34;100.00;100501.00;5113358;28;20256;-72
2023/05/11 05:44:11;;;;;;;23.98;12.00;;;;;;;14.29;100.00;100513.53;5113200;28;20399;-71
2023/05/11 05:46:42;;;;;;;24.02;11.80;;;;;;;14.30;100.00;100507.34;5115270;28;20035;-72
2023/05/11 05:49:13;;;;;;;26.45;12.15;;;;;;;14.37;100.00;100506.09;5126570;28;20031;-71
2023/05/11 05:51:43;;;;;;;29.23;12.07;;;;;;;14.47;100.00;100509.94;5117273;28;20432;-71
2023/05/11 05:54:13;;;;;;;24.02;11.95;;;;;;;14.40;100.00;100512.03;5115873;28;20062;-71
2023/05/11 05:56:44;;;;;;;23.77;11.68;;;;;;;14.48;100.00;100512.50;5115617;28;20035;-72
2023/05/11 05:59:14;;;;;;;23.52;11.68;;;;;;;14.43;100.00;100516.31;5115141;28;20038;-72
2023/05/11 06:01:46;;;;;;;26.08;12.15;;;;;;;14.53;100.00;100523.63;5116361;28;20031;-73
2023/05/11 06:04:16;;;;;;;25.63;12.20;;;;;;;14.47;100.00;100523.09;5116131;28;20019;-72
2023/05/11 06:06:46;;;;;;;25.55;11.82;;;;;;;14.58;100.00;100521.59;5114876;28;20058;-73
2023/05/11 06:09:17;;;;;;;28.90;13.02;;;;;;;14.47;100.00;100525.72;5113421;28;20046;-71
2023/05/11 06:11:47;;;;;;;24.23;11.82;;;;;;;14.41;100.00;100529.53;5116299;28;20544;-73
2023/05/11 06:14:17;;;;;;;24.45;12.23;;;;;;;14.57;100.00;100525.16;5116166;28;20106;-73
2023/05/11 06:16:48;;;;;;;26.70;11.75;;;;;;;14.50;100.00;100534.31;5134410;28;20082;-70
2023/05/11 06:19:18;;;;;;;24.05;11.77;;;;;;;14.59;100.00;100530.34;5118087;28;20115;-71
2023/05/11 06:21:48;;;;;;;22.90;11.70;;;;;;;14.66;100.00;100527.31;5118934;28;20664;-70
2023/05/11 06:24:18;;;;;;;25.70;11.25;;;;;;;14.71;100.00;100534.94;5118903;28;20019;-71
2023/05/11 06:26:49;;;;;;;24.15;11.02;;;;;;;14.59;100.00;100533.81;5118319;28;20036;-71
2023/05/11 06:29:21;;;;;;;22.38;11.15;;;;;;;14.55;100.00;100524.41;5132504;28;20054;-72
2023/05/11 06:31:53;;;;;;;20.05;9.70;;;;;;;14.62;100.00;100527.56;5118607;28;20027;-71
2023/05/11 06:34:23;;;;;;;21.88;10.20;;;;;;;14.72;100.00;100529.63;5119612;28;20303;-73
2023/05/11 06:36:53;;;;;;;25.45;10.55;;;;;;;14.64;100.00;100523.06;5117273;28;20062;-74
2023/05/11 06:39:23;;;;;;;20.20;9.85;;;;;;;14.53;100.00;100520.13;5116925;28;20042;-74
2023/05/11 06:41:54;;;;;;;23.80;10.43;;;;;;;14.74;100.00;100529.53;5116517;28;20126;-74
2023/05/11 06:44:24;;;;;;;18.27;9.45;;;;;;;14.65;100.00;100523.00;5115288;28;20319;-74
2023/05/11 06:46:55;;;;;;;20.15;9.70;;;;;;;14.81;100.00;100517.75;5117990;28;20130;-73
2023/05/11 06:49:25;;;;;;;20.27;9.77;;;;;;;14.85;100.00;100526.25;5117620;28;20034;-74
2023/05/11 06:51:56;;;;;;;20.77;9.55;;;;;;;14.73;100.00;100522.59;5118047;28;20540;-75
2023/05/11 06:54:26;;;;;;;17.55;9.13;;;;;;;14.82;100.00;100519.44;5116413;28;20031;-74
2023/05/11 06:56:56;;;;;;;19.60;9.75;;;;;;;14.80;100.00;100522.16;5130774;28;20055;-75
2023/05/11 06:59:27;;;;;;;20.92;9.50;;;;;;;14.77;100.00;100524.13;5114979;28;20481;-74
2023/05/11 07:01:57;;;;;;;23.50;9.65;;;;;;;14.96;100.00;100520.38;5115472;28;20070;-75
2023/05/11 07:04:28;;;;;;;21.45;10.32;;;;;;;14.99;100.00;100520.25;5115696;28;20094;-74
2023/05/11 07:06:58;;;;;;;20.63;10.57;;;;;;;15.08;100.00;100522.38;5130624;28;21215;-74
2023/05/11 07:09:29;;;;;;;21.75;9.73;;;;;;;15.06;100.00;100513.72;5131222;28;20117;-74
2023/05/11 07:11:59;;;;;;;18.67;9.15;;;;;;;15.02;100.00;100518.28;5132357;28;20039;-75
2023/05/11 07:14:29;;;;;;;19.63;9.40;;;;;;;15.08;100.00;100515.34;5111166;28;20693;-73
2023/05/11 07:16:59;;;;;;;17.52;9.45;;;;;;;15.16;100.00;100521.00;5131831;28;20121;-75
2023/05/11 07:19:30;;;;;;;19.02;9.55;;;;;;;15.03;100.00;100525.25;5115188;28;20569;-75
2023/05/11 07:22:01;;;;;;;21.38;9.35;;;;;;;14.98;100.00;100524.66;5116340;28;20042;-75
2023/05/11 07:24:31;;;;;;;18.42;9.82;;;;;;;15.15;100.00;100521.94;5128366;28;20425;-75
2023/05/11 07:27:01;;;;;;;15.75;8.35;;;;;;;15.24;100.00;100529.34;5118028;28;20082;-76
2023/05/11 07:29:31;;;;;;;21.33;9.63;;;;;;;15.16;100.00;100523.66;5131192;28;20079;-74
2023/05/11 07:32:02;;;;;;;16.05;8.93;;;;;;;15.20;100.00;100527.81;5132246;28;20583;-76
2023/05/11 07:34:32;;;;;;;19.45;9.55;;;;;;;15.13;100.00;100526.47;5116502;28;20038;-77
2023/05/11 07:37:02;;;;;;;15.68;8.90;;;;;;;14.97;100.00;100528.22;5117449;28;20038;-74
2023/05/11 07:39:33;;;;;;;17.10;9.45;;;;;;;15.11;100.00;100535.34;5116878;28;20031;-74
2023/05/11 07:42:03;;;;;;;19.83;8.95;;;;;;;15.02;100.00;100533.25;5118216;28;20026;-74
2023/05/11 07:44:33;;;;;;;16.27;9.10;;;;;;;14.97;100.00;100530.00;5117578;28;20612;-74
2023/05/11 07:47:04;;;;;;;17.98;8.70;;;;;;;15.10;100.00;100539.78;5117580;28;20019;-74
2023/05/11 07:49:34;;;;;;;16.55;9.30;;;;;;;14.91;100.00;100543.50;5115921;28;20114;-73
2023/05/11 07:52:04;;;;;;;16.70;9.05;;;;;;;15.03;100.00;100525.25;5129209;28;20118;-73
2023/05/11 07:54:35;;;;;;;17.25;9.60;;;;;;;14.98;100.00;100531.72;5118043;28;20062;-75
2023/05/11 07:57:05;;;;;;;17.70;10.07;;;;;;;15.02;100.00;100534.06;5128638;28;20023;-75
2023/05/11 07:59:36;;;;;;;17.83;9.35;;;;;;;15.12;100.00;100535.28;5116143;28;20058;-74
2023/05/11 08:02:08;;;;;;;18.55;9.73;;;;;;;15.06;100.00;100526.88;5116902;28;20085;-75
2023/05/11 08:04:39;;;;;;;19.50;9.45;;;;;;;15.18;100.00;100529.69;5117230;28;20549;-74
2023/05/11 08:07:09;;;;;;;20.85;10.35;;;;;;;15.23;100.00;100526.78;5126637;28;20045;-73
2023/05/11 08:09:40;;;;;;;17.27;9.63;;;;;;;15.14;100.00;100527.28;5116273;28;20031;-75
2023/05/11 08:12:10;;;;;;;20.40;10.40;;;;;;;15.25;100.00;100525.78;5116237;28;20023;-76
2023/05/11 08:14:42;;;;;;;17.60;8.93;;;;;;;15.26;100.00;100534.53;5116173;28;20063;-75
2023/05/11 08:17:12;;;;;;;18.23;9.50;;;;;;;15.18;100.00;100540.22;5113825;28;20055;-72
2023/05/11 08:19:42;;;;;;;16.27;9.30;;;;;;;15.25;100.00;100531.06;5116593;28;20106;-74
2023/05/11 08:22:12;;;;;;;17.75;9.50;;;;;;;15.34;100.00;100540.25;5116562;28;20031;-73
2023/05/11 08:24:43;;;;;;;16.33;9.05;;;;;;;15.33;100.00;100542.03;5117054;28;20038;-74
2023/05/11 08:27:14;;;;;;;16.40;8.88;;;;;;;15.14;100.00;100536.06;5129693;28;20090;-72
2023/05/11 08:29:44;;;;;;;16.67;9.30;;;;;;;15.05;100.00;100547.06;5115859;28;20349;-75
2023/05/11 08:32:14;;;;;;;19.10;9.02;;;;;;;15.18;100.00;100542.84;5114818;28;20426;-72
2023/05/11 08:34:45;;;;;;;16.27;9.27;;;;;;;15.30;100.00;100539.56;5117103;28;20143;-75
2023/05/11 08:37:15;;;;;;;16.77;9.77;;;;;;;15.36;100.00;100536.59;5115356;28;20465;-74
2023/05/11 08:39:46;;;;;;;17.58;9.27;;;;;;;15.42;100.00;100540.69;5115837;28;20031;-74
2023/05/11 08:42:16;;;;;;;16.58;9.38;;;;;;;15.41;100.00;100539.84;5129210;28;20027;-74
2023/05/11 08:44:47;;;;;;;17.10;9.48;;;;;;;15.45;100.00;100544.00;5115616;28;20050;-74
2023/05/11 08:47:18;;;;;;;18.90;9.90;;;;;;;15.31;100.00;100541.28;5119014;28;20287;-77
2023/05/11 08:49:51;;;;;;;18.25;9.48;;;;;;;15.31;100.00;100543.91;5121050;28;20039;-74
2023/05/11 08:52:22;;;;;;;18.23;9.60;;;;;;;15.64;100.00;100535.88;5119829;28;20031;-74
2023/05/11 08:54:52;;;;;;;17.42;9.63;;;;;;;15.74;100.00;100535.28;5130389;28;20089;-74
2023/05/11 08:57:23;;;;;;;16.05;8.82;;;;;;;15.95;100.00;100539.34;5118485;28;20292;-71
2023/05/11 08:59:54;;;;;;;14.68;8.75;;;;;;;16.04;100.00;100537.94;5113468;28;20118;-72
2023/05/11 09:02:25;;;;;;;12.00;8.02;;;;;;;16.03;100.00;100541.53;5116098;28;20050;-72
2023/05/11 09:04:57;;;;;;;12.38;7.50;;;;;;;15.52;100.00;100536.59;5115822;28;20524;-72
2023/05/11 09:07:29;;;;;;;13.15;7.85;;;;;;;15.88;100.00;100543.25;5117315;28;20035;-72
2023/05/11 09:10:00;;;;;;;11.25;7.13;;;;;;;16.06;100.00;100536.06;5114950;28;20034;-72
2023/05/11 09:12:30;;;;;;;11.57;6.35;;;;;;;16.10;100.00;100541.09;5117010;28;20041;-72
2023/05/11 09:15:01;;;;;;;9.40;6.30;;;;;;;16.01;100.00;100543.41;5116755;28;20062;-73
2023/05/11 09:17:31;;;;;;;9.80;6.50;;;;;;;15.84;100.00;100539.09;5118393;28;20486;-73
2023/05/11 09:20:04;;;;;;;9.02;6.03;;;;;;;16.11;100.00;100534.00;5122527;28;20074;-71
2023/05/11 09:22:42;;;;;;;9.15;5.70;;;;;;;16.42;100.00;100539.19;5125242;28;20026;-73
2023/05/11 09:25:15;;;;;;;10.30;6.60;;;;;;;16.27;100.00;100534.78;5133248;28;20459;-71
2023/05/11 09:27:46;;;;;;;8.65;5.70;;;;;;;15.87;100.00;100538.91;5115066;28;20035;-73
2023/05/11 09:30:21;;;;;;;10.13;6.30;;;;;;;16.36;100.00;100535.13;5114443;28;20031;-72
2023/05/11 09:32:52;;;;;;;9.15;5.93;;;;;;;16.65;100.00;100536.88;5119165;28;20026;-72
2023/05/11 09:35:24;;;;;;;8.80;5.68;;;;;;;16.42;100.00;100532.13;5120356;28;20054;-74
2023/05/11 09:38:08;;;;;;;8.55;5.57;;;;;;;16.45;100.00;100528.47;5119814;28;20117;-72
2023/05/11 09:40:45;;;;;;;11.02;5.53;;;;;;;16.64;100.00;100529.91;5118136;28;20476;-72
2023/05/11 09:43:22;;;;;;;7.32;4.90;;;;;;;16.70;100.00;100531.31;5114801;28;20020;-72
2023/05/11 09:46:00;;;;;;;8.77;5.40;;;;;;;16.87;100.00;100526.69;5115147;28;20106;-72
2023/05/11 09:48:31;;;;;;;8.65;5.30;;;;;;;17.04;100.00;100526.47;5117262;28;20043;-72
2023/05/11 09:51:06;;;;;;;8.88;5.50;;;;;;;17.04;100.00;100527.34;5115155;28;20039;-72
2023/05/11 09:53:41;;;;;;;8.05;5.00;;;;;;;17.06;100.00;100527.22;5111433;28;20019;-71
2023/05/11 09:56:12;;;;;;;6.88;4.78;;;;;;;16.95;100.00;100530.53;5118262;28;20102;-71
2023/05/11 09:58:56;;;;;;;11.00;5.65;;;;;;;16.72;100.00;100529.44;5115780;28;20580;-70
2023/05/11 10:01:31;;;;;;;8.23;5.10;;;;;;;16.98;100.00;100530.34;5110647;28;20503;-72
2023/05/11 10:04:04;;;;;;;8.60;5.43;;;;;;;16.80;100.00;100520.09;5114657;28;20512;-72
2023/05/11 10:06:54;;;;;;;9.50;5.45;;;;;;;17.19;100.00;100522.88;5117710;28;20026;-73
2023/05/11 10:09:26;;;;;;;9.57;5.32;;;;;;;17.41;100.00;100513.53;5114423;28;20050;-74
2023/05/11 10:11:56;;;;;;;10.60;6.35;;;;;;;17.08;100.00;100520.06;5119461;28;20104;-74
2023/05/11 10:14:28;;;;;;;8.38;5.07;;;;;;;17.38;100.00;100511.09;5118988;28;20074;-74
2023/05/11 10:17:00;;;;;;;7.85;5.20;;;;;;;17.26;100.00;100516.25;5117338;28;20031;-72
2023/05/11 10:19:31;;;;;;;10.43;5.15;;;;;;;17.36;100.00;100517.41;5134704;28;20023;-72
2023/05/11 10:22:04;;;;;;;9.25;5.90;;;;;;;17.45;100.00;100507.09;5114983;28;20035;-72
2023/05/11 10:24:35;;;;;;;7.97;4.88;;;;;;;17.65;100.00;100506.63;5114217;28;20493;-72
2023/05/11 10:27:06;;;;;;;7.63;5.05;;;;;;;17.62;100.00;100500.72;5117099;28;20027;-71
2023/05/11 10:29:36;;;;;;;8.40;5.43;;;;;;;17.70;100.00;100501.91;5115956;28;20620;-72
2023/05/11 10:32:07;;;;;;;9.13;5.65;;;;;;;17.44;100.00;100499.25;5117189;28;20129;-69
2023/05/11 10:34:40;;;;;;;10.07;6.00;;;;;;;17.49;100.00;100507.75;5117008;28;20027;-70
2023/05/11 10:37:12;;;;;;;9.40;5.55;;;;;;;17.42;100.00;100498.50;5112619;28;20395;-72
2023/05/11 10:39:44;;;;;;;9.05;5.50;;;;;;;17.79;100.00;100497.81;5116270;28;20054;-72
2023/05/11 10:42:40;;;;;;;7.00;4.97;;;;;;;17.79;100.00;100498.66;5119407;28;20540;-72
2023/05/11 10:45:23;;;;;;;9.27;5.10;;;;;;;17.80;100.00;100495.06;5123505;28;20125;-72
2023/05/11 10:48:15;;;;;;;7.40;5.10;;;;;;;17.81;100.00;100501.22;5121463;28;20481;-74
2023/05/11 10:50:54;;;;;;;9.43;5.47;;;;;;;17.60;100.00;100505.22;5119705;28;20054;-71
2023/05/11 10:54:06;;;;;;;11.10;6.15;;;;;;;17.69;100.00;100502.00;5118762;28;20063;-71
2023/05/11 10:57:07;;;;;;;9.15;5.72;;;;;;;17.61;100.00;100501.63;5125697;28;20139;-72
2023/05/11 10:59:40;;;;;;;11.00;5.97;;;;;;;17.49;100.00;100502.47;5116272;28;20682;-71
2023/05/11 11:02:11;;;;;;;10.30;5.85;;;;;;;17.40;100.00;100500.41;5117389;28;20365;-71
2023/05/11 11:04:45;;;;;;;10.73;6.50;;;;;;;17.28;100.00;100498.53;5110862;28;20123;-71
2023/05/11 11:07:18;;;;;;;13.10;7.07;;;;;;;17.01;100.00;100502.91;5111961;28;20046;-73
2023/05/11 11:09:51;;;;;;;11.43;7.50;;;;;;;17.03;100.00;100495.75;5114349;28;20027;-71
2023/05/11 11:12:25;;;;;;;10.75;6.88;;;;;;;16.92;100.00;100495.56;5114460;28;20158;-73
2023/05/11 11:15:00;;;;;;;11.23;6.60;;;;;;;16.90;100.00;100500.09;5112212;28;20110;-72
2023/05/11 11:17:33;;;;;;;11.27;6.75;;;;;;;16.86;100.00;100499.44;5113096;28;20066;-72
2023/05/11 11:20:06;;;;;;;13.73;7.20;;;;;;;16.66;100.00;100485.78;5114311;28;20305;-72
2023/05/11 11:22:37;;;;;;;13.05;7.63;;;;;;;16.57;100.00;100496.88;5117389;28;20484;-72
2023/05/11 11:25:08;;;;;;;11.77;7.32;;;;;;;16.71;100.00;100488.16;5117494;28;20035;-71
2023/05/11 11:27:39;;;;;;;12.50;7.47;;;;;;;16.73;100.00;100488.91;5115563;28;20027;-72
2023/05/11 11:30:21;;;;;;;12.83;7.93;;;;;;;16.58;100.00;100489.84;5116167;28;20544;-71
2023/05/11 11:32:53;;;;;;;13.70;8.23;;;;;;;16.70;100.00;100492.56;5118232;28;20297;-72
2023/05/11 11:35:42;;;;;;;12.73;8.20;;;;;;;16.78;100.00;100488.50;5131567;28;20299;-70